sensor_id;sensor_type;location;lat;lon;timestamp;temperature;humidity
1137;DHT22;557;48.466;7.950;2022-08-04T00:00:55;24.40;75.10
1137;DHT22;557;48.466;7.950;2022-08-04T00:03:49;24.30;80.50
1137;DHT22;557;48.466;7.950;2022-08-04T00:06:45;24.30;84.90
1137;DHT22;557;48.466;7.950;2022-08-04T00:09:38;24.30;81.60
1137;DHT22;557;48.466;7.950;2022-08-04T00:12:28;24.30;83.00
1137;DHT22;557;48.466;7.950;2022-08-04T00:15:18;24.30;90.00
1137;DHT22;557;48.466;7.950;2022-08-04T00:18:07;24.30;91.10
1137;DHT22;557;48.466;7.950;2022-08-04T00:20:58;24.20;93.60
1137;DHT22;557;48.466;7.950;2022-08-04T00:23:45;24.20;95.00
1137;DHT22;557;48.466;7.950;2022-08-04T00:26:32;24.20;93.20
1137;DHT22;557;48.466;7.950;2022-08-04T00:29:19;24.30;91.80
1137;DHT22;557;48.466;7.950;2022-08-04T00:32:07;24.30;94.20
1137;DHT22;557;48.466;7.950;2022-08-04T00:35:00;24.20;99.00
1137;DHT22;557;48.466;7.950;2022-08-04T00:37:48;24.10;99.90
1137;DHT22;557;48.466;7.950;2022-08-04T00:40:41;24.00;99.90
1137;DHT22;557;48.466;7.950;2022-08-04T00:43:38;23.90;99.90
1137;DHT22;557;48.466;7.950;2022-08-04T00:46:38;23.90;99.90
1137;DHT22;557;48.466;7.950;2022-08-04T00:49:56;23.80;99.90
1137;DHT22;557;48.466;7.950;2022-08-04T00:53:06;23.80;99.90
1137;DHT22;557;48.466;7.950;2022-08-04T00:56:14;23.90;99.90
1137;DHT22;557;48.466;7.950;2022-08-04T00:59:28;23.80;99.90
1137;DHT22;557;48.466;7.950;2022-08-04T01:02:28;23.70;99.90
1137;DHT22;557;48.466;7.950;2022-08-04T01:05:27;23.70;99.90
1137;DHT22;557;48.466;7.950;2022-08-04T01:11:41;23.60;99.90
1137;DHT22;557;48.466;7.950;2022-08-04T01:17:46;23.60;99.90
1137;DHT22;557;48.466;7.950;2022-08-04T01:20:42;23.60;99.90
1137;DHT22;557;48.466;7.950;2022-08-04T01:23:53;23.60;99.90
1137;DHT22;557;48.466;7.950;2022-08-04T01:26:51;23.60;99.90
1137;DHT22;557;48.466;7.950;2022-08-04T01:29:44;23.50;99.90
1137;DHT22;557;48.466;7.950;2022-08-04T01:32:45;23.50;99.90
1137;DHT22;557;48.466;7.950;2022-08-04T01:35:38;23.50;99.90
1137;DHT22;557;48.466;7.950;2022-08-04T01:38:29;23.40;99.90
1137;DHT22;557;48.466;7.950;2022-08-04T01:41:24;23.30;99.90
1137;DHT22;557;48.466;7.950;2022-08-04T01:44:11;23.30;99.90
1137;DHT22;557;48.466;7.950;2022-08-04T01:47:00;23.10;99.90
1137;DHT22;557;48.466;7.950;2022-08-04T01:49:49;23.10;99.90
1137;DHT22;557;48.466;7.950;2022-08-04T01:52:36;23.00;99.90
1137;DHT22;557;48.466;7.950;2022-08-04T01:55:22;23.00;99.90
1137;DHT22;557;48.466;7.950;2022-08-04T01:58:39;23.00;99.90
1137;DHT22;557;48.466;7.950;2022-08-04T02:01:26;23.00;99.90
1137;DHT22;557;48.466;7.950;2022-08-04T02:04:14;23.00;99.90
1137;DHT22;557;48.466;7.950;2022-08-04T02:07:08;23.00;99.90
1137;DHT22;557;48.466;7.950;2022-08-04T02:10:06;23.10;99.90
1137;DHT22;557;48.466;7.950;2022-08-04T02:12:59;23.10;99.90
1137;DHT22;557;48.466;7.950;2022-08-04T02:15:58;23.10;99.90
1137;DHT22;557;48.466;7.950;2022-08-04T02:18:55;23.10;99.90
1137;DHT22;557;48.466;7.950;2022-08-04T02:21:46;23.00;99.90
1137;DHT22;557;48.466;7.950;2022-08-04T02:24:39;23.00;99.90
1137;DHT22;557;48.466;7.950;2022-08-04T02:27:33;22.90;99.90
1137;DHT22;557;48.466;7.950;2022-08-04T02:30:29;23.00;99.90
1137;DHT22;557;48.466;7.950;2022-08-04T02:33:18;22.90;99.90
1137;DHT22;557;48.466;7.950;2022-08-04T02:36:10;23.00;99.90
1137;DHT22;557;48.466;7.950;2022-08-04T02:39:00;23.00;99.90
1137;DHT22;557;48.466;7.950;2022-08-04T02:41:48;23.10;99.90
1137;DHT22;557;48.466;7.950;2022-08-04T02:44:36;23.00;99.90
1137;DHT22;557;48.466;7.950;2022-08-04T02:47:25;23.00;99.90
1137;DHT22;557;48.466;7.950;2022-08-04T02:50:13;23.00;99.90
1137;DHT22;557;48.466;7.950;2022-08-04T02:53:01;23.00;99.90
1137;DHT22;557;48.466;7.950;2022-08-04T02:55:51;23.00;99.90
1137;DHT22;557;48.466;7.950;2022-08-04T02:58:41;23.00;99.90
1137;DHT22;557;48.466;7.950;2022-08-04T03:01:31;23.00;99.90
1137;DHT22;557;48.466;7.950;2022-08-04T03:04:26;23.00;99.90
1137;DHT22;557;48.466;7.950;2022-08-04T03:07:40;23.00;99.90
1137;DHT22;557;48.466;7.950;2022-08-04T03:11:09;23.00;99.90
1137;DHT22;557;48.466;7.950;2022-08-04T03:18:00;23.10;99.90
1137;DHT22;557;48.466;7.950;2022-08-04T03:21:17;23.10;99.90
1137;DHT22;557;48.466;7.950;2022-08-04T03:24:30;23.00;99.90
1137;DHT22;557;48.466;7.950;2022-08-04T03:31:06;22.90;99.90
1137;DHT22;557;48.466;7.950;2022-08-04T03:34:06;22.90;99.90
1137;DHT22;557;48.466;7.950;2022-08-04T03:37:18;22.90;99.90
1137;DHT22;557;48.466;7.950;2022-08-04T03:40:33;22.90;99.90
1137;DHT22;557;48.466;7.950;2022-08-04T03:43:41;22.90;99.90
1137;DHT22;557;48.466;7.950;2022-08-04T03:46:51;22.90;99.90
1137;DHT22;557;48.466;7.950;2022-08-04T03:50:06;22.90;99.90
1137;DHT22;557;48.466;7.950;2022-08-04T03:56:50;22.80;99.90
1137;DHT22;557;48.466;7.950;2022-08-04T03:59:49;22.80;99.90
1137;DHT22;557;48.466;7.950;2022-08-04T04:06:26;22.60;99.90
1137;DHT22;557;48.466;7.950;2022-08-04T04:13:01;22.40;99.90
1137;DHT22;557;48.466;7.950;2022-08-04T04:16:10;22.40;99.90
1137;DHT22;557;48.466;7.950;2022-08-04T04:19:18;22.40;99.90
1137;DHT22;557;48.466;7.950;2022-08-04T04:22:21;22.40;99.90
1137;DHT22;557;48.466;7.950;2022-08-04T04:25:18;22.50;99.90
1137;DHT22;557;48.466;7.950;2022-08-04T04:28:23;22.40;99.90
1137;DHT22;557;48.466;7.950;2022-08-04T04:31:33;22.30;99.90
1137;DHT22;557;48.466;7.950;2022-08-04T04:34:30;22.30;99.90
1137;DHT22;557;48.466;7.950;2022-08-04T04:37:36;22.20;99.90
1137;DHT22;557;48.466;7.950;2022-08-04T04:40:37;22.10;99.90
1137;DHT22;557;48.466;7.950;2022-08-04T04:43:55;22.20;99.90
1137;DHT22;557;48.466;7.950;2022-08-04T04:46:53;22.20;99.90
1137;DHT22;557;48.466;7.950;2022-08-04T04:49:47;22.20;99.90
1137;DHT22;557;48.466;7.950;2022-08-04T04:52:39;22.20;99.90
1137;DHT22;557;48.466;7.950;2022-08-04T04:55:27;22.20;99.90
1137;DHT22;557;48.466;7.950;2022-08-04T04:58:16;22.10;99.90
1137;DHT22;557;48.466;7.950;2022-08-04T05:01:20;22.00;1.00
1137;DHT22;557;48.466;7.950;2022-08-04T05:07:58;21.90;1.00
1137;DHT22;557;48.466;7.950;2022-08-04T05:11:08;22.00;1.00
1137;DHT22;557;48.466;7.950;2022-08-04T05:14:01;22.10;1.00
1137;DHT22;557;48.466;7.950;2022-08-04T05:16:53;22.10;99.90
1137;DHT22;557;48.466;7.950;2022-08-04T05:19:50;22.20;99.90
1137;DHT22;557;48.466;7.950;2022-08-04T05:22:41;22.40;99.90
1137;DHT22;557;48.466;7.950;2022-08-04T05:25:34;22.60;99.90
1137;DHT22;557;48.466;7.950;2022-08-04T05:28:23;22.80;99.90
1137;DHT22;557;48.466;7.950;2022-08-04T05:31:11;22.90;99.90
1137;DHT22;557;48.466;7.950;2022-08-04T05:33:59;23.10;99.90
1137;DHT22;557;48.466;7.950;2022-08-04T05:36:50;23.20;99.90
1137;DHT22;557;48.466;7.950;2022-08-04T05:39:44;23.40;99.90
1137;DHT22;557;48.466;7.950;2022-08-04T05:42:31;23.50;99.90
1137;DHT22;557;48.466;7.950;2022-08-04T05:45:20;23.60;99.90
1137;DHT22;557;48.466;7.950;2022-08-04T05:48:07;23.70;99.90
1137;DHT22;557;48.466;7.950;2022-08-04T05:50:54;23.90;99.90
1137;DHT22;557;48.466;7.950;2022-08-04T05:53:42;24.00;99.90
1137;DHT22;557;48.466;7.950;2022-08-04T05:56:30;24.10;99.90
1137;DHT22;557;48.466;7.950;2022-08-04T05:59:19;24.20;99.90
1137;DHT22;557;48.466;7.950;2022-08-04T06:02:09;24.40;99.90
1137;DHT22;557;48.466;7.950;2022-08-04T06:04:55;24.40;99.90
1137;DHT22;557;48.466;7.950;2022-08-04T06:07:42;24.50;99.90
1137;DHT22;557;48.466;7.950;2022-08-04T06:10:31;24.60;99.90
1137;DHT22;557;48.466;7.950;2022-08-04T06:13:25;24.60;99.90
1137;DHT22;557;48.466;7.950;2022-08-04T06:16:16;24.70;99.90
1137;DHT22;557;48.466;7.950;2022-08-04T06:19:05;24.80;99.90
1137;DHT22;557;48.466;7.950;2022-08-04T06:21:53;24.80;99.90
1137;DHT22;557;48.466;7.950;2022-08-04T06:24:41;24.80;99.90
1137;DHT22;557;48.466;7.950;2022-08-04T06:27:32;24.80;95.70
1137;DHT22;557;48.466;7.950;2022-08-04T06:30:18;24.90;99.90
1137;DHT22;557;48.466;7.950;2022-08-04T06:33:07;25.00;98.10
1137;DHT22;557;48.466;7.950;2022-08-04T06:36:09;25.10;93.30
1137;DHT22;557;48.466;7.950;2022-08-04T06:38:56;25.10;94.90
1137;DHT22;557;48.466;7.950;2022-08-04T06:41:43;25.20;90.70
1137;DHT22;557;48.466;7.950;2022-08-04T06:44:29;25.20;90.30
1137;DHT22;557;48.466;7.950;2022-08-04T06:47:15;25.30;83.60
1137;DHT22;557;48.466;7.950;2022-08-04T06:50:05;25.40;83.20
1137;DHT22;557;48.466;7.950;2022-08-04T06:52:51;25.60;77.90
1137;DHT22;557;48.466;7.950;2022-08-04T06:55:38;25.70;73.70
1137;DHT22;557;48.466;7.950;2022-08-04T06:58:27;25.90;48.20
1137;DHT22;557;48.466;7.950;2022-08-04T07:01:16;26.20;42.40
1137;DHT22;557;48.466;7.950;2022-08-04T07:04:04;26.40;33.80
1137;DHT22;557;48.466;7.950;2022-08-04T07:06:52;26.60;30.20
1137;DHT22;557;48.466;7.950;2022-08-04T07:09:38;26.70;24.70
1137;DHT22;557;48.466;7.950;2022-08-04T07:12:25;26.90;20.90
1137;DHT22;557;48.466;7.950;2022-08-04T07:15:12;27.10;14.60
1137;DHT22;557;48.466;7.950;2022-08-04T07:17:59;27.30;12.20
1137;DHT22;557;48.466;7.950;2022-08-04T07:20:48;27.40;10.40
1137;DHT22;557;48.466;7.950;2022-08-04T07:23:35;27.60;7.50
1137;DHT22;557;48.466;7.950;2022-08-04T07:26:26;27.70;6.60
1137;DHT22;557;48.466;7.950;2022-08-04T07:29:12;27.90;5.10
1137;DHT22;557;48.466;7.950;2022-08-04T07:31:59;28.00;1.80
1137;DHT22;557;48.466;7.950;2022-08-04T07:34:46;28.20;1.00
1137;DHT22;557;48.466;7.950;2022-08-04T07:37:33;28.30;1.00
1137;DHT22;557;48.466;7.950;2022-08-04T07:40:21;28.50;1.00
1137;DHT22;557;48.466;7.950;2022-08-04T07:43:07;28.70;1.00
1137;DHT22;557;48.466;7.950;2022-08-04T07:45:53;28.90;1.00
1137;DHT22;557;48.466;7.950;2022-08-04T07:48:39;29.00;1.00
1137;DHT22;557;48.466;7.950;2022-08-04T07:51:25;29.20;1.00
1137;DHT22;557;48.466;7.950;2022-08-04T07:54:12;29.30;1.00
1137;DHT22;557;48.466;7.950;2022-08-04T07:57:00;29.50;1.00
1137;DHT22;557;48.466;7.950;2022-08-04T07:59:46;29.70;1.00
1137;DHT22;557;48.466;7.950;2022-08-04T08:02:32;29.80;1.00
1137;DHT22;557;48.466;7.950;2022-08-04T08:05:19;29.90;1.00
1137;DHT22;557;48.466;7.950;2022-08-04T08:08:05;30.20;1.00
1137;DHT22;557;48.466;7.950;2022-08-04T08:10:51;30.50;1.00
1137;DHT22;557;48.466;7.950;2022-08-04T08:13:39;30.70;1.00
1137;DHT22;557;48.466;7.950;2022-08-04T08:16:25;30.80;1.00
1137;DHT22;557;48.466;7.950;2022-08-04T08:19:12;30.90;1.00
1137;DHT22;557;48.466;7.950;2022-08-04T08:21:59;31.20;1.00
1137;DHT22;557;48.466;7.950;2022-08-04T08:24:45;31.20;1.00
1137;DHT22;557;48.466;7.950;2022-08-04T08:27:31;31.30;1.00
1137;DHT22;557;48.466;7.950;2022-08-04T08:30:18;31.40;1.00
1137;DHT22;557;48.466;7.950;2022-08-04T08:33:05;31.30;1.00
1137;DHT22;557;48.466;7.950;2022-08-04T08:35:54;31.20;1.00
1137;DHT22;557;48.466;7.950;2022-08-04T08:38:52;31.30;1.00
1137;DHT22;557;48.466;7.950;2022-08-04T08:42:14;31.50;1.00
1137;DHT22;557;48.466;7.950;2022-08-04T08:45:27;31.90;1.00
1137;DHT22;557;48.466;7.950;2022-08-04T08:48:38;32.10;1.00
1137;DHT22;557;48.466;7.950;2022-08-04T08:51:43;32.20;1.00
1137;DHT22;557;48.466;7.950;2022-08-04T08:58:29;32.50;1.00
1137;DHT22;557;48.466;7.950;2022-08-04T09:01:30;32.60;1.00
1137;DHT22;557;48.466;7.950;2022-08-04T09:04:35;32.70;1.00
1137;DHT22;557;48.466;7.950;2022-08-04T09:07:36;32.70;1.00
1137;DHT22;557;48.466;7.950;2022-08-04T09:10:35;32.70;1.00
1137;DHT22;557;48.466;7.950;2022-08-04T09:13:31;32.70;1.00
1137;DHT22;557;48.466;7.950;2022-08-04T09:16:20;33.00;1.00
1137;DHT22;557;48.466;7.950;2022-08-04T09:19:14;33.30;1.00
1137;DHT22;557;48.466;7.950;2022-08-04T09:22:09;33.00;1.00
1137;DHT22;557;48.466;7.950;2022-08-04T09:25:01;33.10;1.00
1137;DHT22;557;48.466;7.950;2022-08-04T09:27:51;32.90;1.00
1137;DHT22;557;48.466;7.950;2022-08-04T09:30:41;33.10;1.00
1137;DHT22;557;48.466;7.950;2022-08-04T09:33:33;33.30;1.00
1137;DHT22;557;48.466;7.950;2022-08-04T09:36:33;33.60;1.00
1137;DHT22;557;48.466;7.950;2022-08-04T09:39:25;33.60;1.00
1137;DHT22;557;48.466;7.950;2022-08-04T09:42:17;33.90;1.00
1137;DHT22;557;48.466;7.950;2022-08-04T09:45:11;34.00;1.00
1137;DHT22;557;48.466;7.950;2022-08-04T09:48:05;33.90;1.00
1137;DHT22;557;48.466;7.950;2022-08-04T09:50:55;34.10;1.00
1137;DHT22;557;48.466;7.950;2022-08-04T09:53:56;34.20;1.00
1137;DHT22;557;48.466;7.950;2022-08-04T09:56:55;34.50;1.00
1137;DHT22;557;48.466;7.950;2022-08-04T09:59:57;34.60;1.00
1137;DHT22;557;48.466;7.950;2022-08-04T10:02:51;34.50;1.00
1137;DHT22;557;48.466;7.950;2022-08-04T10:05:48;34.60;1.00
1137;DHT22;557;48.466;7.950;2022-08-04T10:08:55;34.70;1.00
1137;DHT22;557;48.466;7.950;2022-08-04T10:11:54;35.10;1.00
1137;DHT22;557;48.466;7.950;2022-08-04T10:14:51;35.30;1.00
1137;DHT22;557;48.466;7.950;2022-08-04T10:18:08;35.40;1.00
1137;DHT22;557;48.466;7.950;2022-08-04T10:21:02;35.50;1.00
1137;DHT22;557;48.466;7.950;2022-08-04T10:24:04;35.60;1.00
1137;DHT22;557;48.466;7.950;2022-08-04T10:26:57;35.90;1.00
1137;DHT22;557;48.466;7.950;2022-08-04T10:29:45;36.10;1.00
1137;DHT22;557;48.466;7.950;2022-08-04T10:32:33;36.30;1.00
1137;DHT22;557;48.466;7.950;2022-08-04T10:35:21;36.50;1.00
1137;DHT22;557;48.466;7.950;2022-08-04T10:38:14;36.70;1.00
1137;DHT22;557;48.466;7.950;2022-08-04T10:41:12;36.90;1.00
1137;DHT22;557;48.466;7.950;2022-08-04T10:44:16;36.50;1.00
1137;DHT22;557;48.466;7.950;2022-08-04T10:47:13;36.60;1.00
1137;DHT22;557;48.466;7.950;2022-08-04T10:50:02;36.60;1.00
1137;DHT22;557;48.466;7.950;2022-08-04T10:52:54;36.70;1.00
1137;DHT22;557;48.466;7.950;2022-08-04T10:55:47;37.00;1.00
1137;DHT22;557;48.466;7.950;2022-08-04T10:58:39;37.40;1.00
1137;DHT22;557;48.466;7.950;2022-08-04T11:01:31;37.30;1.00
1137;DHT22;557;48.466;7.950;2022-08-04T11:04:24;37.10;1.00
1137;DHT22;557;48.466;7.950;2022-08-04T11:07:13;37.20;1.00
1137;DHT22;557;48.466;7.950;2022-08-04T11:10:00;37.30;1.00
1137;DHT22;557;48.466;7.950;2022-08-04T11:12:48;37.60;1.00
1137;DHT22;557;48.466;7.950;2022-08-04T11:15:39;38.10;1.00
1137;DHT22;557;48.466;7.950;2022-08-04T11:18:34;38.60;1.00
1137;DHT22;557;48.466;7.950;2022-08-04T11:21:25;39.10;1.00
1137;DHT22;557;48.466;7.950;2022-08-04T11:24:17;39.30;1.00
1137;DHT22;557;48.466;7.950;2022-08-04T11:27:08;39.40;1.00
1137;DHT22;557;48.466;7.950;2022-08-04T11:30:02;39.00;1.00
1137;DHT22;557;48.466;7.950;2022-08-04T11:32:56;38.70;1.00
1137;DHT22;557;48.466;7.950;2022-08-04T11:35:51;39.00;1.00
1137;DHT22;557;48.466;7.950;2022-08-04T11:38:46;39.10;1.00
1137;DHT22;557;48.466;7.950;2022-08-04T11:41:40;39.10;1.00
1137;DHT22;557;48.466;7.950;2022-08-04T11:44:36;39.50;1.00
1137;DHT22;557;48.466;7.950;2022-08-04T11:47:28;39.70;1.00
1137;DHT22;557;48.466;7.950;2022-08-04T11:50:20;39.90;1.00
1137;DHT22;557;48.466;7.950;2022-08-04T11:53:07;39.60;1.00
1137;DHT22;557;48.466;7.950;2022-08-04T11:55:59;39.40;1.00
1137;DHT22;557;48.466;7.950;2022-08-04T11:58:47;39.70;1.00
1137;DHT22;557;48.466;7.950;2022-08-04T12:01:37;40.30;1.00
1137;DHT22;557;48.466;7.950;2022-08-04T12:04:33;40.30;1.00
1137;DHT22;557;48.466;7.950;2022-08-04T12:07:33;40.50;1.00
1137;DHT22;557;48.466;7.950;2022-08-04T12:10:41;40.80;1.00
1137;DHT22;557;48.466;7.950;2022-08-04T12:13:35;40.90;1.00
1137;DHT22;557;48.466;7.950;2022-08-04T12:16:28;41.10;1.00
1137;DHT22;557;48.466;7.950;2022-08-04T12:19:23;41.60;1.00
1137;DHT22;557;48.466;7.950;2022-08-04T12:22:15;42.00;1.00
1137;DHT22;557;48.466;7.950;2022-08-04T12:25:07;42.10;1.00
1137;DHT22;557;48.466;7.950;2022-08-04T12:27:57;42.00;1.00
1137;DHT22;557;48.466;7.950;2022-08-04T12:30:51;41.70;1.00
1137;DHT22;557;48.466;7.950;2022-08-04T12:33:43;41.90;1.00
1137;DHT22;557;48.466;7.950;2022-08-04T12:36:36;41.80;1.00
1137;DHT22;557;48.466;7.950;2022-08-04T12:39:26;42.00;1.00
1137;DHT22;557;48.466;7.950;2022-08-04T12:42:18;42.20;1.00
1137;DHT22;557;48.466;7.950;2022-08-04T12:45:08;42.50;1.00
1137;DHT22;557;48.466;7.950;2022-08-04T12:47:57;42.20;1.00
1137;DHT22;557;48.466;7.950;2022-08-04T12:50:47;41.80;1.00
1137;DHT22;557;48.466;7.950;2022-08-04T12:53:37;42.10;1.00
1137;DHT22;557;48.466;7.950;2022-08-04T12:56:25;42.50;1.00
1137;DHT22;557;48.466;7.950;2022-08-04T12:59:13;42.90;1.00
1137;DHT22;557;48.466;7.950;2022-08-04T13:01:59;42.90;1.00
1137;DHT22;557;48.466;7.950;2022-08-04T13:04:46;42.40;1.00
1137;DHT22;557;48.466;7.950;2022-08-04T13:07:36;42.30;1.00
1137;DHT22;557;48.466;7.950;2022-08-04T13:10:23;41.90;1.00
1137;DHT22;557;48.466;7.950;2022-08-04T13:13:15;42.00;1.00
1137;DHT22;557;48.466;7.950;2022-08-04T13:16:05;42.50;1.00
1137;DHT22;557;48.466;7.950;2022-08-04T13:18:52;42.70;1.00
1137;DHT22;557;48.466;7.950;2022-08-04T13:21:42;42.80;1.00
1137;DHT22;557;48.466;7.950;2022-08-04T13:24:29;43.10;1.00
1137;DHT22;557;48.466;7.950;2022-08-04T13:27:15;43.40;1.00
1137;DHT22;557;48.466;7.950;2022-08-04T13:30:03;43.50;1.00
1137;DHT22;557;48.466;7.950;2022-08-04T13:32:54;43.50;1.00
1137;DHT22;557;48.466;7.950;2022-08-04T13:35:43;42.80;1.00
1137;DHT22;557;48.466;7.950;2022-08-04T13:38:30;42.00;1.00
1137;DHT22;557;48.466;7.950;2022-08-04T13:41:17;42.20;1.00
1137;DHT22;557;48.466;7.950;2022-08-04T13:44:05;42.50;1.00
1137;DHT22;557;48.466;7.950;2022-08-04T13:46:56;41.70;1.00
1137;DHT22;557;48.466;7.950;2022-08-04T13:50:05;41.50;1.00
1137;DHT22;557;48.466;7.950;2022-08-04T13:52:53;42.20;1.00
1137;DHT22;557;48.466;7.950;2022-08-04T13:55:39;42.60;1.00
1137;DHT22;557;48.466;7.950;2022-08-04T13:58:29;42.90;1.00
1137;DHT22;557;48.466;7.950;2022-08-04T14:01:22;43.10;1.00
1137;DHT22;557;48.466;7.950;2022-08-04T14:04:15;42.50;1.00
1137;DHT22;557;48.466;7.950;2022-08-04T14:07:09;42.50;1.00
1137;DHT22;557;48.466;7.950;2022-08-04T14:09:56;42.70;1.00
1137;DHT22;557;48.466;7.950;2022-08-04T14:12:44;42.00;1.00
1137;DHT22;557;48.466;7.950;2022-08-04T14:15:33;41.70;1.00
1137;DHT22;557;48.466;7.950;2022-08-04T14:18:20;41.50;1.00
1137;DHT22;557;48.466;7.950;2022-08-04T14:21:08;41.80;1.00
1137;DHT22;557;48.466;7.950;2022-08-04T14:23:57;42.30;1.00
1137;DHT22;557;48.466;7.950;2022-08-04T14:26:43;42.70;1.00
1137;DHT22;557;48.466;7.950;2022-08-04T14:29:38;42.80;1.00
1137;DHT22;557;48.466;7.950;2022-08-04T14:32:25;42.90;1.00
1137;DHT22;557;48.466;7.950;2022-08-04T14:35:11;43.00;1.00
1137;DHT22;557;48.466;7.950;2022-08-04T14:37:59;43.00;1.00
1137;DHT22;557;48.466;7.950;2022-08-04T14:40:46;42.80;1.00
1137;DHT22;557;48.466;7.950;2022-08-04T14:43:41;42.20;1.00
1137;DHT22;557;48.466;7.950;2022-08-04T14:46:27;42.00;1.00
1137;DHT22;557;48.466;7.950;2022-08-04T14:49:13;42.00;1.00
1137;DHT22;557;48.466;7.950;2022-08-04T14:52:00;42.10;1.00
1137;DHT22;557;48.466;7.950;2022-08-04T14:54:46;42.50;1.00
1137;DHT22;557;48.466;7.950;2022-08-04T14:57:36;42.80;1.00
1137;DHT22;557;48.466;7.950;2022-08-04T15:00:27;43.00;1.00
1137;DHT22;557;48.466;7.950;2022-08-04T15:03:12;42.80;1.00
1137;DHT22;557;48.466;7.950;2022-08-04T15:05:59;42.30;1.00
1137;DHT22;557;48.466;7.950;2022-08-04T15:08:46;41.30;1.00
1137;DHT22;557;48.466;7.950;2022-08-04T15:11:32;40.80;1.00
1137;DHT22;557;48.466;7.950;2022-08-04T15:14:21;41.20;1.00
1137;DHT22;557;48.466;7.950;2022-08-04T15:17:07;41.20;1.00
1137;DHT22;557;48.466;7.950;2022-08-04T15:19:54;41.50;1.00
1137;DHT22;557;48.466;7.950;2022-08-04T15:22:40;42.10;1.00
1137;DHT22;557;48.466;7.950;2022-08-04T15:25:26;42.30;1.00
1137;DHT22;557;48.466;7.950;2022-08-04T15:28:14;42.70;1.00
1137;DHT22;557;48.466;7.950;2022-08-04T15:31:03;43.00;1.00
1137;DHT22;557;48.466;7.950;2022-08-04T15:33:50;42.50;1.00
1137;DHT22;557;48.466;7.950;2022-08-04T15:36:46;42.00;1.00
1137;DHT22;557;48.466;7.950;2022-08-04T15:39:34;41.70;1.00
1137;DHT22;557;48.466;7.950;2022-08-04T15:42:30;42.00;1.00
1137;DHT22;557;48.466;7.950;2022-08-04T15:45:22;42.50;1.00
1137;DHT22;557;48.466;7.950;2022-08-04T15:48:22;42.70;1.00
1137;DHT22;557;48.466;7.950;2022-08-04T15:51:10;42.90;1.00
1137;DHT22;557;48.466;7.950;2022-08-04T15:54:21;43.00;1.00
1137;DHT22;557;48.466;7.950;2022-08-04T15:57:08;43.10;1.00
1137;DHT22;557;48.466;7.950;2022-08-04T16:00:02;43.00;1.00
1137;DHT22;557;48.466;7.950;2022-08-04T16:02:49;42.70;1.00
1137;DHT22;557;48.466;7.950;2022-08-04T16:05:36;43.00;1.00
1137;DHT22;557;48.466;7.950;2022-08-04T16:08:23;43.50;1.00
1137;DHT22;557;48.466;7.950;2022-08-04T16:11:35;43.40;1.00
1137;DHT22;557;48.466;7.950;2022-08-04T16:14:33;42.90;1.00
1137;DHT22;557;48.466;7.950;2022-08-04T16:17:20;42.80;1.00
1137;DHT22;557;48.466;7.950;2022-08-04T16:20:11;43.20;1.00
1137;DHT22;557;48.466;7.950;2022-08-04T16:23:06;43.30;1.00
1137;DHT22;557;48.466;7.950;2022-08-04T16:25:57;43.40;1.00
1137;DHT22;557;48.466;7.950;2022-08-04T16:28:43;43.00;1.00
1137;DHT22;557;48.466;7.950;2022-08-04T16:31:29;42.50;1.00
1137;DHT22;557;48.466;7.950;2022-08-04T16:34:18;42.10;1.00
1137;DHT22;557;48.466;7.950;2022-08-04T16:37:05;42.10;1.00
1137;DHT22;557;48.466;7.950;2022-08-04T16:43:29;42.50;1.00
1137;DHT22;557;48.466;7.950;2022-08-04T16:46:38;42.20;1.00
1137;DHT22;557;48.466;7.950;2022-08-04T16:49:24;41.90;1.00
1137;DHT22;557;48.466;7.950;2022-08-04T16:52:11;41.50;1.00
1137;DHT22;557;48.466;7.950;2022-08-04T16:54:59;41.10;1.00
1137;DHT22;557;48.466;7.950;2022-08-04T16:57:45;40.70;1.00
1137;DHT22;557;48.466;7.950;2022-08-04T17:00:33;40.20;1.00
1137;DHT22;557;48.466;7.950;2022-08-04T17:03:20;39.90;1.00
1137;DHT22;557;48.466;7.950;2022-08-04T17:06:08;39.40;1.00
1137;DHT22;557;48.466;7.950;2022-08-04T17:08:54;39.00;1.00
1137;DHT22;557;48.466;7.950;2022-08-04T17:11:42;38.80;1.00
1137;DHT22;557;48.466;7.950;2022-08-04T17:14:29;38.60;1.00
1137;DHT22;557;48.466;7.950;2022-08-04T17:17:21;38.40;1.00
1137;DHT22;557;48.466;7.950;2022-08-04T17:20:08;38.10;1.00
1137;DHT22;557;48.466;7.950;2022-08-04T17:22:56;37.80;1.00
1137;DHT22;557;48.466;7.950;2022-08-04T17:26:08;37.70;1.00
1137;DHT22;557;48.466;7.950;2022-08-04T17:28:56;37.60;1.00
1137;DHT22;557;48.466;7.950;2022-08-04T17:31:43;37.50;1.00
1137;DHT22;557;48.466;7.950;2022-08-04T17:34:29;37.30;1.00
1137;DHT22;557;48.466;7.950;2022-08-04T17:37:16;37.20;1.00
1137;DHT22;557;48.466;7.950;2022-08-04T17:40:06;37.00;1.00
1137;DHT22;557;48.466;7.950;2022-08-04T17:43:01;36.80;1.00
1137;DHT22;557;48.466;7.950;2022-08-04T17:46:19;36.70;1.00
1137;DHT22;557;48.466;7.950;2022-08-04T17:49:09;36.50;1.00
1137;DHT22;557;48.466;7.950;2022-08-04T17:51:56;36.30;1.00
1137;DHT22;557;48.466;7.950;2022-08-04T17:54:43;36.20;1.00
1137;DHT22;557;48.466;7.950;2022-08-04T17:57:30;36.00;1.00
1137;DHT22;557;48.466;7.950;2022-08-04T18:00:16;35.80;1.00
1137;DHT22;557;48.466;7.950;2022-08-04T18:03:03;35.60;1.00
1137;DHT22;557;48.466;7.950;2022-08-04T18:05:49;35.70;1.00
1137;DHT22;557;48.466;7.950;2022-08-04T18:08:37;35.40;1.00
1137;DHT22;557;48.466;7.950;2022-08-04T18:11:24;35.10;1.00
1137;DHT22;557;48.466;7.950;2022-08-04T18:14:10;34.80;1.00
1137;DHT22;557;48.466;7.950;2022-08-04T18:16:56;34.60;1.00
1137;DHT22;557;48.466;7.950;2022-08-04T18:19:52;34.30;1.00
1137;DHT22;557;48.466;7.950;2022-08-04T18:22:38;34.10;1.00
1137;DHT22;557;48.466;7.950;2022-08-04T18:25:25;33.80;1.00
1137;DHT22;557;48.466;7.950;2022-08-04T18:28:12;33.60;1.00
1137;DHT22;557;48.466;7.950;2022-08-04T18:30:58;33.40;1.00
1137;DHT22;557;48.466;7.950;2022-08-04T18:33:43;33.20;1.00
1137;DHT22;557;48.466;7.950;2022-08-04T18:36:31;33.10;1.00
1137;DHT22;557;48.466;7.950;2022-08-04T18:39:17;32.90;1.00
1137;DHT22;557;48.466;7.950;2022-08-04T18:42:03;32.70;1.00
1137;DHT22;557;48.466;7.950;2022-08-04T18:44:48;32.50;1.00
1137;DHT22;557;48.466;7.950;2022-08-04T18:47:34;32.30;1.00
1137;DHT22;557;48.466;7.950;2022-08-04T18:50:20;32.10;1.00
1137;DHT22;557;48.466;7.950;2022-08-04T18:53:07;31.90;1.00
1137;DHT22;557;48.466;7.950;2022-08-04T18:55:53;31.70;1.00
1137;DHT22;557;48.466;7.950;2022-08-04T18:58:39;31.50;1.00
1137;DHT22;557;48.466;7.950;2022-08-04T19:01:24;31.40;1.00
1137;DHT22;557;48.466;7.950;2022-08-04T19:04:10;31.20;1.00
1137;DHT22;557;48.466;7.950;2022-08-04T19:06:57;31.10;1.00
1137;DHT22;557;48.466;7.950;2022-08-04T19:09:44;31.00;1.00
1137;DHT22;557;48.466;7.950;2022-08-04T19:12:30;30.90;1.00
1137;DHT22;557;48.466;7.950;2022-08-04T19:15:17;30.70;1.00
1137;DHT22;557;48.466;7.950;2022-08-04T19:18:03;30.60;1.00
1137;DHT22;557;48.466;7.950;2022-08-04T19:20:49;30.60;1.00
1137;DHT22;557;48.466;7.950;2022-08-04T19:23:35;30.50;1.00
1137;DHT22;557;48.466;7.950;2022-08-04T19:26:22;30.30;1.00
1137;DHT22;557;48.466;7.950;2022-08-04T19:29:08;30.10;1.00
1137;DHT22;557;48.466;7.950;2022-08-04T19:31:54;29.90;1.00
1137;DHT22;557;48.466;7.950;2022-08-04T19:34:40;29.70;1.00
1137;DHT22;557;48.466;7.950;2022-08-04T19:37:25;29.60;1.00
1137;DHT22;557;48.466;7.950;2022-08-04T19:40:12;29.40;1.00
1137;DHT22;557;48.466;7.950;2022-08-04T19:42:59;29.30;1.00
1137;DHT22;557;48.466;7.950;2022-08-04T19:45:45;29.10;1.00
1137;DHT22;557;48.466;7.950;2022-08-04T19:48:31;29.00;1.00
1137;DHT22;557;48.466;7.950;2022-08-04T19:51:17;28.90;1.00